Aviation Digital Data Service (ADDS)

Output produced by METARs form (2142 UTC 21 September 2018)
found at http://aviationweather.gov/metar/data/
 
KSNS 212053Z 33016KT 9SM CLR 21/12 A2998 RMK AO2 SLP160 T02060122 58009
KSNS 211729Z 2118/2218 30008KT P6SM SKC 
     FM212100 29012KT P6SM SKC 
     FM220300 29008KT P6SM FEW009 
     FM220800 VRB03KT P6SM OVC006
       
KMRY 212054Z 28004KT 10SM CLR 21/13 A3000 RMK AO2 SLP168 T02060128 58007 $
KMRY 211729Z 2118/2218 VRB04KT P6SM SKC 
     FM211900 29008KT P6SM SKC 
     FM220400 VRB03KT P6SM FEW008 
     FM220800 00000KT P6SM OVC005
       
KSJC 212053Z 32012KT 10SM CLR 28/09 A2995 RMK AO2 SLP139 T02780094 57006
KSJC 211729Z 2118/2218 VRB05KT P6SM SKC 
     FM212000 31011KT P6SM SKC 
     FM220400 30006KT P6SM SKC 
     FM221000 VRB03KT P6SM SKC
       
KRHV 212047Z 32010KT 10SM SKC 31/08 A2992
KSFO 212056Z 31011KT 10SM CLR 23/12 A2996 RMK AO2 SLP144 T02280117 58005
KSFO 212052Z 2121/2224 34008KT P6SM SKC 
     FM212200 29014KT P6SM SKC 
     FM220400 29007KT P6SM SKC 
     FM221200 VRB04KT P6SM SKC 
     FM222100 29016KT P6SM SKC
       
KLVK 212053Z 32007KT 10SM CLR 33/03 A2993 RMK AO2 SLP130 T03280033 58011
KLVK 211729Z 2118/2218 26005KT P6SM SKC 
     FM212100 29010KT P6SM SKC 
     FM220400 24006KT P6SM SKC 
     FM220600 VRB03KT P6SM SKC
       
KMCE 212053Z AUTO 26005KT 10SM CLR 33/06 A2991 RMK AO2 SLP127 T03280056 58013
KMCE 211720Z 2118/2218 32005KT P6SM SKC